Time;durP1;ratioP1;P1;durP2;ratioP2;P2;SDS_P1;SDS_P2;PMS_P1;PMS_P2;Temp;Humidity;BMP_temperature;BMP_pressure;BME280_temperature;BME280_humidity;BME280_pressure;Samples;Min_cycle;Max_cycle;Signal;HPM_P1;HPM_P2
2022/02/23 00:00:56;;;;;;;;;;;;;;;4.29;91.41;101616.81;2055068;28;43999;-66
2022/02/23 00:01:57;;;;;;;;;;;;;;;4.26;90.25;101622.97;2056768;28;19930;-64
2022/02/23 00:02:59;;;;;;;;;;;;;;;4.22;90.53;101621.16;2055200;28;43418;-65
2022/02/23 00:04:02;;;;;;;;;;;;;;;4.27;90.86;101613.25;2055329;28;44356;-64
2022/02/23 00:05:04;;;;;;;;;;;;;;;4.36;90.65;101621.31;2055583;28;45906;-63
2022/02/23 00:06:06;;;;;;;;;;;;;;;4.35;90.21;101632.81;2055746;28;45424;-64
2022/02/23 00:07:09;;;;;;;;;;;;;;;4.33;90.50;101626.59;2055261;28;34934;-64
2022/02/23 00:08:15;;;;;;;;;;;;;;;4.33;89.89;101634.56;2055786;28;43276;-64
2022/02/23 00:09:17;;;;;;;;;;;;;;;4.29;90.64;101638.94;2055887;28;19934;-64
2022/02/23 00:10:18;;;;;;;;;;;;;;;4.28;90.01;101638.91;2055794;28;45973;-64
2022/02/23 00:11:20;;;;;;;;;;;;;;;4.28;90.16;101645.09;2054717;28;43910;-63
2022/02/23 00:12:22;;;;;;;;;;;;;;;4.29;90.14;101638.00;2055000;28;47145;-64
2022/02/23 00:13:26;;;;;;;;;;;;;;;4.28;90.47;101660.09;2055498;28;43069;-64
2022/02/23 00:14:29;;;;;;;;;;;;;;;4.29;91.15;101651.25;2056147;28;19937;-64
2022/02/23 00:15:31;;;;;;;;;;;;;;;4.28;90.23;101653.03;2055412;28;46088;-64
2022/02/23 00:16:32;;;;;;;;;;;;;;;4.27;90.88;101660.97;2055456;28;44423;-64
2022/02/23 00:17:34;;;;;;;;;;;;;;;4.24;90.41;101666.25;2055137;28;44695;-64
2022/02/23 00:18:35;;;;;;;;;;;;;;;4.23;90.96;101653.84;2055178;28;44480;-64
2022/02/23 00:19:37;;;;;;;;;;;;;;;4.23;90.23;101653.84;2054237;28;45329;-64
2022/02/23 00:20:39;;;;;;;;;;;;;;;4.22;90.24;101668.88;2055584;28;38623;-64
2022/02/23 00:21:40;;;;;;;;;;;;;;;4.20;90.21;101674.13;2054972;28;42619;-64
2022/02/23 00:22:42;;;;;;;;;;;;;;;4.19;90.41;101671.47;2056559;28;20000;-64
2022/02/23 00:23:44;;;;;;;;;;;;;;;4.24;90.64;101671.53;2055350;28;44776;-64
2022/02/23 00:24:46;;;;;;;;;;;;;;;4.21;90.64;101667.06;2055390;28;42884;-64
2022/02/23 00:25:48;;;;;;;;;;;;;;;4.21;90.63;101670.59;2055390;28;43034;-64
2022/02/23 00:26:49;;;;;;;;;;;;;;;4.21;90.32;101672.38;2055492;28;41737;-64
2022/02/23 00:27:51;;;;;;;;;;;;;;;4.20;90.85;101667.94;2054785;28;28396;-64
2022/02/23 00:28:52;;;;;;;;;;;;;;;4.22;90.99;101679.47;2054761;28;30108;-64
2022/02/23 00:29:54;;;;;;;;;;;;;;;4.18;90.09;101682.91;2055678;28;19915;-64
2022/02/23 00:30:56;;;;;;;;;;;;;;;4.16;91.38;101677.63;2062566;28;46601;-64
2022/02/23 00:31:57;;;;;;;;;;;;;;;4.13;90.73;101680.22;2055436;28;27020;-64
2022/02/23 00:32:59;;;;;;;;;;;;;;;4.19;90.55;101680.28;2055396;28;44472;-63
2022/02/23 00:34:00;;;;;;;;;;;;;;;4.15;91.34;101678.47;2055070;28;45763;-64
2022/02/23 00:35:02;;;;;;;;;;;;;;;4.13;90.76;101674.03;2054834;28;44416;-64
2022/02/23 00:36:04;;;;;;;;;;;;;;;4.12;90.69;101673.13;2055479;28;45628;-64
2022/02/23 00:37:06;;;;;;;;;;;;;;;4.07;91.00;101674.78;2055405;28;37905;-64
2022/02/23 00:38:07;;;;;;;;;;;;;;;4.03;91.57;101670.31;2055778;28;45792;-64
2022/02/23 00:39:09;;;;;;;;;;;;;;;4.05;91.47;101675.66;2055459;28;46266;-64
2022/02/23 00:40:11;;;;;;;;;;;;;;;4.02;91.49;101671.22;2055145;28;42802;-64
2022/02/23 00:41:12;;;;;;;;;;;;;;;4.04;91.75;101673.84;2055368;28;45874;-64
2022/02/23 00:42:15;;;;;;;;;;;;;;;4.13;91.72;101669.59;2056106;28;19927;-64
2022/02/23 00:43:16;;;;;;;;;;;;;;;4.10;91.47;101677.50;2055560;28;41250;-63
2022/02/23 00:44:18;;;;;;;;;;;;;;;4.09;91.64;101677.47;2055251;28;46445;-64
2022/02/23 00:45:20;;;;;;;;;;;;;;;4.06;91.17;101686.28;2055427;28;43359;-64
2022/02/23 00:46:23;;;;;;;;;;;;;;;4.06;91.46;101680.97;2055355;28;45700;-64
2022/02/23 00:47:25;;;;;;;;;;;;;;;4.00;91.75;101683.50;2054737;28;45182;-64
2022/02/23 00:48:27;;;;;;;;;;;;;;;4.00;92.14;101686.16;2055277;28;43137;-64
2022/02/23 00:49:28;;;;;;;;;;;;;;;3.97;91.61;101691.44;2055615;28;44894;-64
2022/02/23 00:50:30;;;;;;;;;;;;;;;3.95;91.30;101690.53;2056652;28;41789;-64
2022/02/23 00:51:32;;;;;;;;;;;;;;;3.94;91.54;101694.03;2055993;28;44421;-64
2022/02/23 00:52:36;;;;;;;;;;;;;;;3.96;91.71;101687.88;2056614;28;45874;-64
2022/02/23 00:53:38;;;;;;;;;;;;;;;4.01;91.61;101691.50;2064800;28;19926;-64
2022/02/23 00:54:39;;;;;;;;;;;;;;;3.97;91.53;101691.44;2063804;28;46902;-64
2022/02/23 00:55:41;;;;;;;;;;;;;;;3.97;91.93;101686.13;2056829;28;43966;-64
2022/02/23 00:56:42;;;;;;;;;;;;;;;4.00;92.03;101695.03;2055504;28;44351;-64
2022/02/23 00:57:44;;;;;;;;;;;;;;;3.96;91.48;101698.47;2055960;28;44546;-64
2022/02/23 00:58:45;;;;;;;;;;;;;;;3.99;92.27;101697.66;2056695;28;37548;-64
2022/02/23 00:59:47;;;;;;;;;;;;;;;3.96;91.81;101692.28;2055862;28;45058;-64
2022/02/23 01:00:49;;;;;;;;;;;;;;;3.93;92.47;101693.16;2056491;28;44276;-64
2022/02/23 01:01:50;;;;;;;;;;;;;;;3.94;92.55;101699.31;2055603;28;45854;-64
2022/02/23 01:02:52;;;;;;;;;;;;;;;3.91;91.65;101694.88;2056288;28;46137;-64
2022/02/23 01:03:53;;;;;;;;;;;;;;;3.89;92.08;101707.19;2056225;28;36605;-64
2022/02/23 01:04:55;;;;;;;;;;;;;;;3.88;92.25;101700.13;2056352;28;44379;-64
2022/02/23 01:05:56;;;;;;;;;;;;;;;3.92;92.71;101707.25;2057159;28;27567;-64
2022/02/23 01:06:58;;;;;;;;;;;;;;;3.89;92.02;101704.53;2057612;28;19961;-64
2022/02/23 01:08:00;;;;;;;;;;;;;;;3.91;91.95;101701.91;2056301;28;45040;-64
2022/02/23 01:09:03;;;;;;;;;;;;;;;3.93;92.63;101702.81;2056554;28;41828;-64
2022/02/23 01:10:08;;;;;;;;;;;;;;;3.93;92.54;101706.38;2056174;28;44031;-64
2022/02/23 01:11:10;;;;;;;;;;;;;;;3.92;92.21;101707.25;2056466;28;46148;-64
2022/02/23 01:12:12;;;;;;;;;;;;;;;3.98;92.40;101696.78;2057231;28;20025;-64
2022/02/23 01:13:13;;;;;;;;;;;;;;;3.97;91.89;101716.16;2056713;28;44899;-64
2022/02/23 01:14:17;;;;;;;;;;;;;;;3.99;91.92;101716.19;2056603;28;44456;-64
2022/02/23 01:15:19;;;;;;;;;;;;;;;3.95;91.74;101712.59;2057048;28;36455;-63
2022/02/23 01:16:21;;;;;;;;;;;;;;;3.90;91.90;101718.69;2056320;28;44987;-64
2022/02/23 01:17:23;;;;;;;;;;;;;;;3.88;92.11;101723.09;2056705;28;28549;-64
2022/02/23 01:18:25;;;;;;;;;;;;;;;3.88;92.69;101723.09;2056331;28;45994;-64
2022/02/23 01:19:27;;;;;;;;;;;;;;;3.89;92.46;101716.91;2056418;28;42699;-64
2022/02/23 01:20:28;;;;;;;;;;;;;;;3.88;92.44;101729.25;2056383;28;44149;-64
2022/02/23 01:21:30;;;;;;;;;;;;;;;3.87;92.36;101726.59;2056570;28;45722;-64
2022/02/23 01:22:34;;;;;;;;;;;;;;;3.85;92.02;101731.84;2057395;28;20073;-64
2022/02/23 01:23:35;;;;;;;;;;;;;;;3.91;92.70;101733.69;2056608;28;44034;-65
2022/02/23 01:24:39;;;;;;;;;;;;;;;3.94;92.81;101734.66;2057648;28;19980;-64
2022/02/23 01:25:40;;;;;;;;;;;;;;;4.00;92.51;101733.84;2056542;28;43767;-64
2022/02/23 01:26:42;;;;;;;;;;;;;;;4.04;91.96;101732.16;2057102;28;20001;-64
2022/02/23 01:27:46;;;;;;;;;;;;;;;4.04;91.64;101729.50;2056812;28;38601;-64
2022/02/23 01:28:48;;;;;;;;;;;;;;;4.03;91.42;101731.28;2055548;28;43015;-64
2022/02/23 01:29:50;;;;;;;;;;;;;;;4.04;92.15;101730.41;2056221;28;46077;-64
2022/02/23 01:30:52;;;;;;;;;;;;;;;4.06;91.92;101730.44;2056689;28;23807;-64
2022/02/23 01:31:53;;;;;;;;;;;;;;;4.05;91.71;101729.53;2056354;28;44924;-64
2022/02/23 01:32:55;;;;;;;;;;;;;;;4.07;91.54;101732.22;2057306;28;19934;-64
2022/02/23 01:33:58;;;;;;;;;;;;;;;4.07;91.43;101738.41;2056736;28;44908;-64
2022/02/23 01:35:00;;;;;;;;;;;;;;;4.08;91.95;101729.59;2056099;28;44776;-64
2022/02/23 01:36:05;;;;;;;;;;;;;;;4.07;92.17;101738.41;2057340;28;19922;-64
2022/02/23 01:37:07;;;;;;;;;;;;;;;4.03;91.34;101743.63;2055939;28;45173;-64
2022/02/23 01:38:09;;;;;;;;;;;;;;;3.99;91.59;101738.28;2063860;28;42007;-64
2022/02/23 01:39:10;;;;;;;;;;;;;;;3.97;92.10;101737.34;2063612;28;45792;-64
2022/02/23 01:40:12;;;;;;;;;;;;;;;3.96;92.11;101740.84;2056566;28;44433;-63
2022/02/23 01:41:17;;;;;;;;;;;;;;;3.94;91.74;101744.38;2056356;28;37896;-64
2022/02/23 01:42:19;;;;;;;;;;;;;;;3.91;92.28;101744.31;2056523;28;46409;-64
2022/02/23 01:43:21;;;;;;;;;;;;;;;3.86;92.33;101753.91;2056564;28;42710;-64
2022/02/23 01:44:22;;;;;;;;;;;;;;;3.81;91.88;101744.16;2057005;28;29736;-64
2022/02/23 01:45:24;;;;;;;;;;;;;;;3.80;92.84;101749.41;2056310;28;45477;-64
2022/02/23 01:46:26;;;;;;;;;;;;;;;3.76;92.95;101753.75;2056441;28;40528;-64
2022/02/23 01:47:27;;;;;;;;;;;;;;;3.74;92.92;101749.31;2056145;28;45511;-63
2022/02/23 01:48:29;;;;;;;;;;;;;;;3.73;92.65;101752.81;2056370;28;44444;-64
2022/02/23 01:49:31;;;;;;;;;;;;;;;3.73;92.50;101750.16;2055902;28;39523;-64
2022/02/23 01:50:32;;;;;;;;;;;;;;;3.70;92.59;101755.44;2056415;28;46854;-64
2022/02/23 01:51:36;;;;;;;;;;;;;;;3.65;92.77;101760.63;2056010;28;42691;-64
2022/02/23 01:52:38;;;;;;;;;;;;;;;3.66;93.04;101762.44;2056757;28;20926;-64
2022/02/23 01:53:42;;;;;;;;;;;;;;;3.65;92.85;101759.75;2055801;28;46170;-64
2022/02/23 01:54:43;;;;;;;;;;;;;;;3.62;93.08;101755.25;2056421;28;39938;-64
2022/02/23 01:55:47;;;;;;;;;;;;;;;3.60;92.63;101770.22;2055954;28;46600;-64
2022/02/23 01:56:49;;;;;;;;;;;;;;;3.60;92.93;101770.22;2056613;28;42212;-64
2022/02/23 01:57:51;;;;;;;;;;;;;;;3.55;93.06;101778.09;2064075;28;19933;-64
2022/02/23 01:58:52;;;;;;;;;;;;;;;3.54;92.88;101776.31;2063446;28;44818;-64
2022/02/23 01:59:54;;;;;;;;;;;;;;;3.55;93.21;101782.50;2055906;28;43878;-64
2022/02/23 02:00:56;;;;;;;;;;;;;;;3.55;93.34;101777.19;2055554;28;46250;-64
2022/02/23 02:01:58;;;;;;;;;;;;;;;3.52;92.72;101785.97;2056012;28;41657;-64
2022/02/23 02:03:00;;;;;;;;;;;;;;;3.52;93.27;101785.97;2056369;28;44394;-64
2022/02/23 02:04:01;;;;;;;;;;;;;;;3.56;93.34;101797.53;2056003;28;40845;-64
2022/02/23 02:05:04;;;;;;;;;;;;;;;3.53;93.39;101800.09;2055552;28;43755;-64
2022/02/23 02:06:06;;;;;;;;;;;;;;;3.49;93.33;101800.91;2055667;28;44482;-64
2022/02/23 02:07:09;;;;;;;;;;;;;;;3.49;93.42;101798.25;2057248;28;19927;-64
2022/02/23 02:08:11;;;;;;;;;;;;;;;3.51;93.19;101797.41;2055452;28;44543;-64
2022/02/23 02:09:12;;;;;;;;;;;;;;;3.49;92.92;101800.91;2055563;28;46573;-64
2022/02/23 02:10:14;;;;;;;;;;;;;;;3.46;93.18;101804.38;2055961;28;43079;-64
2022/02/23 02:11:18;;;;;;;;;;;;;;;3.40;93.22;101807.78;2057223;28;20810;-64
2022/02/23 02:12:19;;;;;;;;;;;;;;;3.40;93.43;101813.09;2056000;28;45805;-64
2022/02/23 02:13:21;;;;;;;;;;;;;;;3.36;93.26;101813.00;2056820;28;35929;-64
2022/02/23 02:14:23;;;;;;;;;;;;;;;3.36;93.36;101810.38;2056439;28;44922;-64
2022/02/23 02:15:24;;;;;;;;;;;;;;;3.35;93.49;101808.56;2056387;28;43096;-64
2022/02/23 02:16:26;;;;;;;;;;;;;;;3.35;93.39;101808.56;2056946;28;19927;-64
2022/02/23 02:17:27;;;;;;;;;;;;;;;3.39;93.30;101810.41;2056342;28;45867;-64
2022/02/23 02:18:29;;;;;;;;;;;;;;;3.36;93.25;101820.94;2056844;28;21764;-64
2022/02/23 02:19:31;;;;;;;;;;;;;;;3.35;93.19;101819.16;2055707;28;45264;-63
2022/02/23 02:20:32;;;;;;;;;;;;;;;3.35;93.21;101814.75;2055755;28;44473;-64
2022/02/23 02:22:00;;;;;;;;;;;;;;;3.36;92.97;101819.19;2056034;28;45308;-63
2022/02/23 02:23:01;;;;;;;;;;;;;;;3.34;92.93;101817.34;2055858;28;44936;-63
2022/02/23 02:24:03;;;;;;;;;;;;;;;3.30;93.16;101816.41;2056352;28;44905;-63
2022/02/23 02:25:05;;;;;;;;;;;;;;;3.24;93.23;101822.47;2055515;28;46422;-64
2022/02/23 02:26:07;;;;;;;;;;;;;;;3.29;93.31;101827.84;2056121;28;43988;-63
2022/02/23 02:27:11;;;;;;;;;;;;;;;3.30;92.87;101824.34;2056330;28;45432;-64
2022/02/23 02:28:13;;;;;;;;;;;;;;;3.27;92.79;101836.59;2056055;28;45921;-64
2022/02/23 02:29:14;;;;;;;;;;;;;;;3.28;93.38;101818.13;2056534;28;44238;-64
2022/02/23 02:30:16;;;;;;;;;;;;;;;3.27;93.05;101832.22;2056248;28;44120;-63
2022/02/23 02:31:17;;;;;;;;;;;;;;;3.29;93.20;101827.84;2056117;28;43858;-63
2022/02/23 02:32:20;;;;;;;;;;;;;;;3.24;93.08;101832.16;2056234;28;45370;-64
2022/02/23 02:33:21;;;;;;;;;;;;;;;3.23;93.51;101830.34;2055945;28;34750;-64
2022/02/23 02:34:24;;;;;;;;;;;;;;;3.23;93.01;101830.34;2056139;28;39171;-64
2022/02/23 02:35:25;;;;;;;;;;;;;;;3.20;92.80;101840.91;2055931;28;45245;-64
2022/02/23 02:36:27;;;;;;;;;;;;;;;3.25;92.69;101833.97;2055912;28;46067;-64
2022/02/23 02:37:28;;;;;;;;;;;;;;;3.27;92.81;101824.28;2055492;28;44198;-64
2022/02/23 02:38:32;;;;;;;;;;;;;;;3.27;92.65;101826.94;2056311;28;37542;-63
2022/02/23 02:39:36;;;;;;;;;;;;;;;3.27;92.77;101831.31;2055741;28;42489;-63
2022/02/23 02:40:39;;;;;;;;;;;;;;;3.28;93.01;101833.13;2056117;28;45535;-63
2022/02/23 02:41:41;;;;;;;;;;;;;;;3.29;92.57;101833.16;2055335;28;46140;-64
2022/02/23 02:42:42;;;;;;;;;;;;;;;3.26;92.56;101838.38;2056122;28;40138;-64
2022/02/23 02:43:44;;;;;;;;;;;;;;;3.23;92.12;101833.00;2056038;28;46542;-64
2022/02/23 02:44:45;;;;;;;;;;;;;;;3.22;92.35;101833.88;2056168;28;41958;-64
2022/02/23 02:45:47;;;;;;;;;;;;;;;3.25;92.18;101828.66;2055460;28;45733;-64
2022/02/23 02:46:51;;;;;;;;;;;;;;;3.21;92.10;101842.66;2056964;28;19930;-64
2022/02/23 02:47:52;;;;;;;;;;;;;;;3.16;92.30;101844.31;2055433;28;45412;-64
2022/02/23 02:48:56;;;;;;;;;;;;;;;3.19;92.93;101849.69;2056011;28;46597;-63
2022/02/23 02:49:58;;;;;;;;;;;;;;;3.14;92.38;101846.97;2055596;28;44023;-64
2022/02/23 02:50:59;;;;;;;;;;;;;;;3.15;92.56;101853.13;2056704;28;44450;-64
2022/02/23 02:52:03;;;;;;;;;;;;;;;3.14;92.78;101848.69;2055448;28;38948;-64
2022/02/23 02:53:05;;;;;;;;;;;;;;;3.14;92.47;101854.91;2056326;28;42685;-64
2022/02/23 02:54:07;;;;;;;;;;;;;;;3.16;92.79;101852.25;2055758;28;44389;-64
2022/02/23 02:55:11;;;;;;;;;;;;;;;3.15;92.43;101858.41;2056356;28;45623;-64
2022/02/23 02:56:13;;;;;;;;;;;;;;;3.11;92.55;101856.56;2056352;28;38481;-63
2022/02/23 02:57:14;;;;;;;;;;;;;;;3.10;92.50;101860.06;2056057;28;44909;-63
2022/02/23 02:58:16;;;;;;;;;;;;;;;3.10;92.61;101860.06;2055522;28;44056;-63
2022/02/23 02:59:18;;;;;;;;;;;;;;;3.09;92.70;101859.19;2056563;28;20139;-63
2022/02/23 03:00:19;;;;;;;;;;;;;;;3.08;92.49;101861.78;2055740;28;44537;-63
2022/02/23 03:01:23;;;;;;;;;;;;;;;3.04;92.46;101866.13;2055762;28;45295;-64
2022/02/23 03:02:25;;;;;;;;;;;;;;;3.08;92.42;101867.97;2056618;28;19930;-63
2022/02/23 03:03:26;;;;;;;;;;;;;;;3.09;92.46;101868.84;2056207;28;44159;-64
2022/02/23 03:04:28;;;;;;;;;;;;;;;3.09;92.65;101869.75;2055413;28;43178;-63
2022/02/23 03:05:31;;;;;;;;;;;;;;;3.08;92.33;101867.09;2055943;28;44868;-65
2022/02/23 03:06:33;;;;;;;;;;;;;;;3.09;92.25;101874.13;2055361;28;45070;-64
2022/02/23 03:07:35;;;;;;;;;;;;;;;3.06;92.27;101872.34;2055750;28;40095;-64
2022/02/23 03:08:37;;;;;;;;;;;;;;;3.05;92.07;101873.19;2055566;28;41843;-66
2022/02/23 03:09:38;;;;;;;;;;;;;;;3.05;92.59;101868.81;2055844;28;45462;-66
2022/02/23 03:10:43;;;;;;;;;;;;;;;3.06;92.36;101875.88;2056560;28;19926;-66
2022/02/23 03:11:44;;;;;;;;;;;;;;;3.04;92.31;101877.59;2055425;28;43158;-63
2022/02/23 03:12:49;;;;;;;;;;;;;;;3.00;92.50;101883.66;2054646;28;45268;-64
2022/02/23 03:13:51;;;;;;;;;;;;;;;3.00;92.43;101873.09;2056211;28;41713;-63
2022/02/23 03:14:53;;;;;;;;;;;;;;;3.02;92.45;101878.41;2055382;28;45534;-64
2022/02/23 03:15:54;;;;;;;;;;;;;;;3.00;92.62;101886.31;2055918;28;40984;-64
2022/02/23 03:16:56;;;;;;;;;;;;;;;3.10;92.11;101879.47;2055068;28;41895;-64
2022/02/23 03:17:59;;;;;;;;;;;;;;;3.02;92.05;101883.72;2055886;28;45446;-64
2022/02/23 03:19:01;;;;;;;;;;;;;;;2.98;92.10;101885.41;2055743;28;38402;-64
2022/02/23 03:20:07;;;;;;;;;;;;;;;2.98;92.48;101881.81;2055891;28;45183;-63
2022/02/23 03:21:09;;;;;;;;;;;;;;;2.95;92.49;101882.66;2055385;28;46477;-64
2022/02/23 03:22:11;;;;;;;;;;;;;;;2.98;92.51;101890.69;2055733;28;42275;-63
2022/02/23 03:23:12;;;;;;;;;;;;;;;2.96;92.57;101892.41;2055353;28;41155;-63
2022/02/23 03:24:14;;;;;;;;;;;;;;;3.01;92.46;101888.09;2055687;28;45601;-63
2022/02/23 03:25:16;;;;;;;;;;;;;;;2.98;91.76;101890.69;2055562;28;44393;-63
2022/02/23 03:26:18;;;;;;;;;;;;;;;3.00;92.22;101894.25;2057041;28;20398;-63
2022/02/23 03:27:19;;;;;;;;;;;;;;;2.99;92.26;101895.09;2055877;28;42814;-63
2022/02/23 03:28:21;;;;;;;;;;;;;;;2.96;92.31;101895.06;2056135;28;40034;-63
2022/02/23 03:29:23;;;;;;;;;;;;;;;2.96;92.58;101892.41;2055470;28;44543;-64
2022/02/23 03:30:24;;;;;;;;;;;;;;;3.01;91.82;101903.06;2055845;28;45905;-63
2022/02/23 03:31:26;;;;;;;;;;;;;;;2.99;92.01;101892.44;2055359;28;46112;-64
2022/02/23 03:32:27;;;;;;;;;;;;;;;2.98;92.06;101901.25;2055499;28;44395;-63
2022/02/23 03:33:30;;;;;;;;;;;;;;;2.97;92.16;101899.47;2055720;28;43801;-67
2022/02/23 03:34:31;;;;;;;;;;;;;;;2.99;92.20;101903.03;2055584;28;43438;-63
2022/02/23 03:35:33;;;;;;;;;;;;;;;2.97;92.34;101906.50;2055499;28;45560;-64
2022/02/23 03:36:34;;;;;;;;;;;;;;;2.98;91.81;101906.56;2055584;28;44579;-64
2022/02/23 03:37:36;;;;;;;;;;;;;;;3.00;91.85;101910.13;2055149;28;43599;-64
2022/02/23 03:38:38;;;;;;;;;;;;;;;2.97;91.86;101912.69;2056599;28;19925;-63
2022/02/23 03:39:40;;;;;;;;;;;;;;;3.01;91.80;101914.53;2055362;28;46229;-64
2022/02/23 03:40:42;;;;;;;;;;;;;;;2.99;91.90;101910.97;2055381;28;44348;-64
2022/02/23 03:41:44;;;;;;;;;;;;;;;3.00;92.04;101910.13;2054632;28;45784;-64
2022/02/23 03:42:45;;;;;;;;;;;;;;;2.99;91.81;101915.38;2055298;28;44595;-63
2022/02/23 03:43:47;;;;;;;;;;;;;;;2.96;91.90;101921.50;2055265;28;43233;-64
2022/02/23 03:44:48;;;;;;;;;;;;;;;2.96;91.77;101923.22;2054400;28;38301;-64
2022/02/23 03:45:50;;;;;;;;;;;;;;;2.95;91.85;101927.63;2054743;28;44309;-64
2022/02/23 03:46:53;;;;;;;;;;;;;;;2.92;91.94;101935.50;2055398;28;44077;-64
2022/02/23 03:47:57;;;;;;;;;;;;;;;2.94;91.73;101939.06;2056466;28;20009;-64
2022/02/23 03:48:58;;;;;;;;;;;;;;;2.93;92.04;101937.28;2055661;28;45344;-64
2022/02/23 03:50:00;;;;;;;;;;;;;;;2.89;92.10;101940.72;2055522;28;40426;-64
2022/02/23 03:51:01;;;;;;;;;;;;;;;2.88;92.31;101938.03;2055520;28;42790;-63
2022/02/23 03:52:03;;;;;;;;;;;;;;;2.89;92.04;101935.44;2054550;28;45414;-64
2022/02/23 03:53:05;;;;;;;;;;;;;;;2.84;91.94;101942.34;2055641;28;43700;-64
2022/02/23 03:54:06;;;;;;;;;;;;;;;2.88;92.39;101940.69;2054473;28;45214;-63
2022/02/23 03:55:09;;;;;;;;;;;;;;;2.92;91.65;101939.88;2055114;28;39527;-64
2022/02/23 03:57:37;;;;;;;;;;;;;;;2.87;91.99;101942.41;2056048;28;43407;-64
2022/02/23 03:58:38;;;;;;;;;;;;;;;2.83;91.76;101940.56;2055041;28;46731;-63
2022/02/23 03:59:40;;;;;;;;;;;;;;;2.84;92.21;101942.34;2056278;28;30380;-64
2022/02/23 04:00:42;;;;;;;;;;;;;;;2.75;92.17;101952.72;2054970;28;43062;-64
2022/02/23 04:01:46;;;;;;;;;;;;;;;2.80;92.39;101948.41;2055728;28;43746;-64
2022/02/23 04:02:48;;;;;;;;;;;;;;;2.85;92.51;101955.63;2055450;28;44409;-64
2022/02/23 04:03:51;;;;;;;;;;;;;;;2.81;92.51;101951.09;2055422;28;45263;-64
2022/02/23 04:04:53;;;;;;;;;;;;;;;2.84;92.29;101963.50;2055491;28;41821;-64
2022/02/23 04:05:54;;;;;;;;;;;;;;;2.94;92.38;101957.56;2055523;28;45754;-64
2022/02/23 04:06:56;;;;;;;;;;;;;;;2.93;92.32;101969.03;2055801;28;34340;-64
2022/02/23 04:07:58;;;;;;;;;;;;;;;2.94;92.11;101964.63;2055288;28;45671;-64
2022/02/23 04:09:01;;;;;;;;;;;;;;;2.93;91.78;101973.44;2055099;28;45543;-64
2022/02/23 04:10:05;;;;;;;;;;;;;;;2.94;92.29;101970.81;2055441;28;41694;-64
2022/02/23 04:11:06;;;;;;;;;;;;;;;2.94;92.07;101965.50;2054608;28;46005;-64
2022/02/23 04:12:08;;;;;;;;;;;;;;;2.95;91.98;101972.59;2054759;28;44958;-64
2022/02/23 04:13:10;;;;;;;;;;;;;;;2.97;92.15;101972.66;2054945;28;45753;-64
2022/02/23 04:14:12;;;;;;;;;;;;;;;2.97;92.21;101967.34;2055535;28;46593;-64
2022/02/23 04:15:14;;;;;;;;;;;;;;;2.98;91.68;101985.00;2055408;28;39438;-64
2022/02/23 04:16:16;;;;;;;;;;;;;;;2.97;91.74;101980.59;2055563;28;43054;-64
2022/02/23 04:17:19;;;;;;;;;;;;;;;2.97;91.96;101989.41;2054994;28;46280;-64
2022/02/23 04:18:21;;;;;;;;;;;;;;;2.99;91.71;101986.81;2055835;28;43872;-64
2022/02/23 04:19:22;;;;;;;;;;;;;;;2.93;91.85;101984.91;2055234;28;46264;-64
2022/02/23 04:20:24;;;;;;;;;;;;;;;2.90;91.77;101983.94;2055923;28;43857;-64
2022/02/23 04:21:25;;;;;;;;;;;;;;;2.85;91.84;101991.72;2055628;28;30554;-64
2022/02/23 04:22:27;;;;;;;;;;;;;;;2.84;92.11;101997.91;2055291;28;44894;-64
2022/02/23 04:23:28;;;;;;;;;;;;;;;2.84;92.13;102000.53;2054551;28;43977;-64
2022/02/23 04:24:30;;;;;;;;;;;;;;;2.82;92.14;102003.16;2055511;28;45770;-64
2022/02/23 04:25:32;;;;;;;;;;;;;;;2.77;92.31;102002.13;2054596;28;43466;-65
2022/02/23 04:26:35;;;;;;;;;;;;;;;2.81;92.54;102000.44;2055303;28;45067;-64
2022/02/23 04:27:37;;;;;;;;;;;;;;;2.81;92.53;102008.38;2055129;28;44377;-64
2022/02/23 04:28:39;;;;;;;;;;;;;;;2.85;92.37;102000.59;2056243;28;22310;-64
2022/02/23 04:29:41;;;;;;;;;;;;;;;2.82;92.14;102002.25;2055521;28;25127;-65
2022/02/23 04:30:42;;;;;;;;;;;;;;;2.82;91.91;102012.84;2055102;28;44939;-64
2022/02/23 04:31:44;;;;;;;;;;;;;;;2.81;92.24;102005.75;2054994;28;42885;-64
2022/02/23 04:32:46;;;;;;;;;;;;;;;2.79;92.10;102008.34;2055280;28;46290;-64
2022/02/23 04:33:47;;;;;;;;;;;;;;;2.78;92.31;102006.56;2055843;28;20336;-64
2022/02/23 04:34:49;;;;;;;;;;;;;;;2.77;92.03;102009.16;2055134;28;45427;-64
2022/02/23 04:35:51;;;;;;;;;;;;;;;2.82;92.29;102013.72;2055340;28;43583;-64
2022/02/23 04:36:52;;;;;;;;;;;;;;;2.77;92.31;102015.34;2055624;28;40443;-64
2022/02/23 04:38:02;;;;;;;;;;;;;;;2.78;92.25;102013.59;2055907;28;20008;-64
2022/02/23 04:39:05;;;;;;;;;;;;;;;2.76;92.61;102012.66;2055593;28;42817;-64
2022/02/23 04:40:07;;;;;;;;;;;;;;;2.74;92.88;102011.72;2054794;28;42904;-64
2022/02/23 04:41:09;;;;;;;;;;;;;;;2.71;92.67;102007.25;2055141;28;45938;-64
2022/02/23 04:42:13;;;;;;;;;;;;;;;2.66;92.44;102017.69;2056519;28;19965;-64
2022/02/23 04:43:15;;;;;;;;;;;;;;;2.64;92.55;102013.25;2056200;28;19926;-64
2022/02/23 04:44:16;;;;;;;;;;;;;;;2.65;93.07;102018.53;2055134;28;44301;-64
2022/02/23 04:45:19;;;;;;;;;;;;;;;2.67;93.24;102024.78;2054871;28;41260;-64
2022/02/23 04:46:21;;;;;;;;;;;;;;;2.72;93.01;102027.53;2054434;28;45238;-64
2022/02/23 04:47:23;;;;;;;;;;;;;;;2.72;92.95;102031.94;2055226;28;41698;-64
2022/02/23 04:48:24;;;;;;;;;;;;;;;2.68;92.71;102034.50;2055006;28;45147;-64
2022/02/23 04:49:28;;;;;;;;;;;;;;;2.67;92.99;102030.09;2055224;28;46278;-64
2022/02/23 04:50:30;;;;;;;;;;;;;;;2.68;92.97;102029.22;2054972;28;45421;-65
2022/02/23 04:51:31;;;;;;;;;;;;;;;2.68;92.92;102030.97;2055178;28;46475;-65
2022/02/23 04:52:33;;;;;;;;;;;;;;;2.72;93.34;102039.88;2054627;28;44299;-64
2022/02/23 04:53:35;;;;;;;;;;;;;;;2.73;92.88;102036.38;2055654;28;36808;-64
2022/02/23 04:54:38;;;;;;;;;;;;;;;2.77;92.93;102040.91;2055129;28;44445;-64
2022/02/23 04:55:42;;;;;;;;;;;;;;;2.79;93.15;102034.78;2055755;28;30410;-64
2022/02/23 04:56:43;;;;;;;;;;;;;;;2.77;93.36;102036.50;2054855;28;44076;-64
2022/02/23 04:57:45;;;;;;;;;;;;;;;2.80;93.27;102035.69;2055383;28;44449;-64
2022/02/23 04:58:47;;;;;;;;;;;;;;;2.86;92.52;102030.56;2055173;28;44400;-63
2022/02/23 04:59:49;;;;;;;;;;;;;;;2.84;92.87;102037.56;2054645;28;45694;-64
2022/02/23 05:00:52;;;;;;;;;;;;;;;2.82;92.77;102049.88;2054783;28;44405;-66
2022/02/23 05:01:53;;;;;;;;;;;;;;;2.83;92.88;102054.28;2054596;28;44574;-64
2022/02/23 05:02:55;;;;;;;;;;;;;;;2.84;93.02;102056.09;2054991;28;43052;-66
2022/02/23 05:03:56;;;;;;;;;;;;;;;2.82;93.04;102057.78;2055031;28;43414;-63
2022/02/23 05:04:58;;;;;;;;;;;;;;;2.79;92.96;102045.38;2054655;28;45066;-64
2022/02/23 05:05:59;;;;;;;;;;;;;;;2.78;92.89;102054.19;2056227;28;19930;-65
2022/02/23 05:07:01;;;;;;;;;;;;;;;2.81;93.02;102058.63;2054900;28;45378;-64
2022/02/23 05:08:03;;;;;;;;;;;;;;;2.78;93.28;102058.53;2055115;28;46098;-64
2022/02/23 05:09:04;;;;;;;;;;;;;;;2.84;93.27;102058.72;2055366;28;40302;-64
2022/02/23 05:10:06;;;;;;;;;;;;;;;2.87;93.45;102061.44;2054980;28;46431;-64
2022/02/23 05:11:08;;;;;;;;;;;;;;;2.85;93.15;102064.06;2055088;28;37659;-64
2022/02/23 05:12:10;;;;;;;;;;;;;;;2.87;93.47;102064.06;2055211;28;37144;-64
2022/02/23 05:13:12;;;;;;;;;;;;;;;2.85;93.47;102056.13;2054978;28;45751;-64
2022/02/23 05:14:15;;;;;;;;;;;;;;;2.86;93.40;102072.88;2054352;28;43996;-64
2022/02/23 05:15:19;;;;;;;;;;;;;;;2.92;93.60;102067.75;2054030;28;43946;-64
2022/02/23 05:16:21;;;;;;;;;;;;;;;2.87;93.54;102064.06;2054869;28;41833;-64
2022/02/23 05:17:23;;;;;;;;;;;;;;;2.91;93.48;102065.97;2055034;28;45708;-64
2022/02/23 05:18:28;;;;;;;;;;;;;;;2.88;93.41;102055.31;2055482;28;38677;-64
2022/02/23 05:19:32;;;;;;;;;;;;;;;2.90;93.53;102066.81;2055870;28;20009;-64
2022/02/23 05:20:37;;;;;;;;;;;;;;;2.87;93.42;102074.66;2055372;28;46529;-64
2022/02/23 05:21:38;;;;;;;;;;;;;;;2.86;93.66;102072.88;2055783;28;20849;-64
2022/02/23 05:22:46;;;;;;;;;;;;;;;2.95;93.86;102069.59;2055289;28;43604;-64
2022/02/23 05:23:48;;;;;;;;;;;;;;;2.91;93.67;102067.69;2054745;28;46138;-64
2022/02/23 05:24:49;;;;;;;;;;;;;;;2.93;93.65;102069.56;2055779;28;24405;-64
2022/02/23 05:25:51;;;;;;;;;;;;;;;2.96;93.70;102079.31;2054718;28;43941;-64